Time;durP1;ratioP1;P1;durP2;ratioP2;P2;SDS_P1;SDS_P2;PMS_P1;PMS_P2;Temp;Humidity;BMP_temperature;BMP_pressure;BME280_temperature;BME280_humidity;BME280_pressure;Samples;Min_cycle;Max_cycle;Signal;HPM_P1;HPM_P2
2023/03/08 00:00:52;;;;;;;8.90;6.57;;;1.70;99.90;;;;;;2086001;28;20025;-80
2023/03/08 00:01:53;;;;;;;8.25;6.53;;;1.70;99.90;;;;;;2092186;28;20166;-80
2023/03/08 00:02:55;;;;;;;8.07;6.18;;;1.70;99.90;;;;;;2083916;28;20072;-80
2023/03/08 00:03:57;;;;;;;8.85;6.38;;;1.70;99.90;;;;;;2082954;28;20111;-82
2023/03/08 00:04:57;;;;;;;8.32;6.00;;;1.70;99.90;;;;;;2085913;28;20056;-81
2023/03/08 00:05:58;;;;;;;8.30;6.13;;;1.70;99.90;;;;;;2089729;28;20047;-82
2023/03/08 00:06:58;;;;;;;8.05;6.00;;;1.70;99.90;;;;;;2089818;28;20020;-81
2023/03/08 00:08:00;;;;;;;7.38;5.82;;;1.70;99.90;;;;;;2083560;28;20063;-81
2023/03/08 00:09:01;;;;;;;6.68;5.35;;;1.70;99.90;;;;;;2092131;28;20059;-80
2023/03/08 00:10:03;;;;;;;7.00;5.30;;;1.70;99.90;;;;;;2085517;28;20577;-81
2023/03/08 00:11:09;;;;;;;7.18;5.68;;;1.70;99.90;;;;;;2089975;28;20025;-79
2023/03/08 00:12:09;;;;;;;8.30;6.25;;;1.60;99.90;;;;;;2089831;28;20093;-82
2023/03/08 00:13:10;;;;;;;7.85;5.88;;;1.60;99.90;;;;;;2081147;28;20017;-81
2023/03/08 00:14:11;;;;;;;8.13;6.30;;;1.60;99.90;;;;;;2076847;28;20033;-80
2023/03/08 00:15:11;;;;;;;8.98;6.28;;;1.60;99.90;;;;;;2089864;28;20028;-81
2023/03/08 00:16:12;;;;;;;9.25;6.43;;;1.60;99.90;;;;;;2081686;28;20040;-81
2023/03/08 00:17:13;;;;;;;8.30;6.10;;;1.60;99.90;;;;;;2081716;28;20048;-80
2023/03/08 00:18:14;;;;;;;8.13;6.35;;;1.60;99.90;;;;;;2088267;28;20032;-80
2023/03/08 00:19:15;;;;;;;8.60;6.05;;;1.60;99.90;;;;;;2092373;28;20013;-81
2023/03/08 00:20:15;;;;;;;7.93;6.25;;;1.60;99.90;;;;;;2090381;28;20025;-80
2023/03/08 00:21:17;;;;;;;8.57;6.10;;;1.60;99.90;;;;;;2081877;28;20060;-81
2023/03/08 00:22:18;;;;;;;8.75;6.40;;;1.60;99.90;;;;;;2066178;28;20033;-80
2023/03/08 00:23:19;;;;;;;8.05;5.72;;;1.60;99.90;;;;;;2079359;28;20096;-80
2023/03/08 00:24:20;;;;;;;8.20;6.10;;;1.60;99.90;;;;;;2088144;28;20021;-78
2023/03/08 00:25:21;;;;;;;7.72;5.68;;;1.60;99.90;;;;;;2088610;28;20032;-78
2023/03/08 00:26:21;;;;;;;7.88;5.65;;;1.60;99.90;;;;;;2078422;28;20033;-79
2023/03/08 00:27:22;;;;;;;8.38;6.03;;;1.60;99.90;;;;;;2090965;28;20108;-79
2023/03/08 00:28:23;;;;;;;7.72;5.60;;;1.60;99.90;;;;;;2087501;28;20039;-80
2023/03/08 00:29:25;;;;;;;8.05;5.97;;;1.60;99.90;;;;;;2089829;28;20107;-80
2023/03/08 00:30:26;;;;;;;6.68;5.13;;;1.60;99.90;;;;;;2090225;28;20036;-80
2023/03/08 00:31:28;;;;;;;7.30;5.72;;;1.60;99.90;;;;;;2089490;28;20352;-80
2023/03/08 00:32:29;;;;;;;7.13;5.38;;;1.60;99.90;;;;;;2079443;28;20049;-82
2023/03/08 00:33:31;;;;;;;7.22;5.45;;;1.60;99.90;;;;;;2071894;28;20037;-80
2023/03/08 00:34:32;;;;;;;7.40;5.57;;;1.60;99.90;;;;;;2078350;28;20161;-80
2023/03/08 00:35:32;;;;;;;7.15;5.65;;;1.60;99.90;;;;;;2078453;28;20074;-79
2023/03/08 00:36:33;;;;;;;6.75;5.28;;;1.60;99.90;;;;;;2081456;28;20651;-79
2023/03/08 00:37:34;;;;;;;6.70;5.30;;;1.60;99.90;;;;;;2087731;28;20052;-79
2023/03/08 00:38:35;;;;;;;6.72;5.20;;;1.60;99.90;;;;;;2090529;28;20334;-82
2023/03/08 00:39:36;;;;;;;9.68;5.63;;;1.60;99.90;;;;;;2083982;28;20033;-80
2023/03/08 00:40:38;;;;;;;6.38;4.88;;;1.60;99.90;;;;;;2077046;28;20025;-79
2023/03/08 00:41:39;;;;;;;7.13;4.80;;;1.60;99.90;;;;;;2079619;28;20593;-81
2023/03/08 00:42:40;;;;;;;6.28;4.63;;;1.50;99.90;;;;;;2070403;28;21003;-80
2023/03/08 00:43:41;;;;;;;6.38;4.85;;;1.50;99.90;;;;;;2079248;28;20112;-80
2023/03/08 00:44:41;;;;;;;6.22;4.57;;;1.50;99.90;;;;;;2084481;28;20028;-79
2023/03/08 00:45:42;;;;;;;6.22;4.60;;;1.50;99.90;;;;;;2087957;28;20578;-81
2023/03/08 00:46:43;;;;;;;7.80;4.70;;;1.50;99.90;;;;;;2085929;28;20605;-81
2023/03/08 00:47:43;;;;;;;6.40;4.80;;;1.50;99.90;;;;;;2085396;28;20025;-81
2023/03/08 00:48:44;;;;;;;5.82;4.47;;;1.60;99.90;;;;;;2085847;28;20195;-82
2023/03/08 00:49:44;;;;;;;6.60;5.00;;;1.60;99.90;;;;;;2088286;28;20037;-80
2023/03/08 00:50:45;;;;;;;8.45;5.40;;;1.50;99.90;;;;;;2089725;28;20035;-80
2023/03/08 00:51:46;;;;;;;8.55;5.50;;;1.50;99.90;;;;;;2081444;28;20087;-80
2023/03/08 00:52:47;;;;;;;7.13;5.55;;;1.60;99.90;;;;;;2090090;28;20029;-81
2023/03/08 00:53:48;;;;;;;8.05;5.45;;;1.50;99.90;;;;;;2090529;28;20136;-81
2023/03/08 00:54:48;;;;;;;7.18;5.50;;;1.60;99.90;;;;;;2091957;28;20024;-80
2023/03/08 00:55:53;;;;;;;8.05;6.05;;;1.50;99.90;;;;;;2089978;28;20614;-79
2023/03/08 00:56:54;;;;;;;8.80;6.28;;;1.50;99.90;;;;;;2085760;28;20060;-80
2023/03/08 00:57:55;;;;;;;7.63;5.97;;;1.50;99.90;;;;;;2086136;28;20029;-78
2023/03/08 00:58:55;;;;;;;9.73;7.05;;;1.50;99.90;;;;;;2092347;28;20024;-79
2023/03/08 00:59:56;;;;;;;10.60;7.32;;;1.50;99.90;;;;;;2075509;28;20032;-80
2023/03/08 01:00:58;;;;;;;12.00;7.28;;;1.50;99.90;;;;;;2063779;28;20048;-79
2023/03/08 01:02:00;;;;;;;9.70;6.90;;;1.50;99.90;;;;;;2081644;28;20484;-79
2023/03/08 01:03:00;;;;;;;10.25;7.03;;;1.50;99.90;;;;;;2085721;28;20049;-78
2023/03/08 01:04:02;;;;;;;9.82;7.22;;;1.50;99.90;;;;;;2073142;28;20056;-80
2023/03/08 01:05:03;;;;;;;10.70;7.20;;;1.60;99.90;;;;;;2067232;28;20126;-81
2023/03/08 01:06:07;;;;;;;10.98;7.32;;;1.50;99.90;;;;;;2073123;28;20121;-81
2023/03/08 01:07:07;;;;;;;11.27;7.47;;;1.50;99.90;;;;;;2073381;28;20033;-81
2023/03/08 01:08:08;;;;;;;11.35;7.45;;;1.50;99.90;;;;;;2068381;28;20053;-80
2023/03/08 01:09:10;;;;;;;10.35;6.90;;;1.50;99.90;;;;;;2063434;28;20397;-80
2023/03/08 01:10:10;;;;;;;9.48;6.60;;;1.50;99.90;;;;;;2062650;28;20036;-81
2023/03/08 01:11:22;;;;;;;8.40;6.30;;;1.50;99.90;;;;;;2073527;28;20449;-80
2023/03/08 01:12:24;;;;;;;8.63;6.18;;;1.50;99.90;;;;;;2075062;28;20333;-79
2023/03/08 01:13:33;;;;;;;10.93;6.07;;;1.50;99.90;;;;;;2066446;28;20409;-80
2023/03/08 01:14:34;;;;;;;9.13;6.35;;;1.50;99.90;;;;;;2067904;28;20061;-80
2023/03/08 01:15:36;;;;;;;8.95;6.00;;;1.50;99.90;;;;;;2066869;28;20101;-80
2023/03/08 01:16:38;;;;;;;10.52;6.18;;;1.50;99.90;;;;;;2073606;28;20516;-79
2023/03/08 01:17:38;;;;;;;11.25;6.53;;;1.50;99.90;;;;;;2079498;28;20021;-80
2023/03/08 01:18:39;;;;;;;11.38;6.18;;;1.50;99.90;;;;;;2069871;28;20307;-81
2023/03/08 01:19:39;;;;;;;12.25;6.47;;;1.50;99.90;;;;;;2066458;28;20033;-81
2023/03/08 01:20:40;;;;;;;10.63;6.18;;;1.50;99.90;;;;;;2050108;28;20437;-80
2023/03/08 01:21:41;;;;;;;13.65;6.40;;;1.50;99.90;;;;;;2068314;28;20064;-80
2023/03/08 01:22:42;;;;;;;13.43;6.43;;;1.50;99.90;;;;;;2074581;28;20504;-81
2023/03/08 01:23:42;;;;;;;12.27;6.65;;;1.50;99.90;;;;;;2066214;28;20034;-81
2023/03/08 01:24:44;;;;;;;11.95;6.45;;;1.50;99.90;;;;;;2066284;28;20108;-81
2023/03/08 01:25:45;;;;;;;12.95;6.43;;;1.50;99.90;;;;;;2077133;28;20456;-80
2023/03/08 01:26:45;;;;;;;13.80;6.15;;;1.50;99.90;;;;;;2083720;28;20104;-80
2023/03/08 01:27:46;;;;;;;10.23;5.53;;;1.50;99.90;;;;;;2074683;28;20099;-80
2023/03/08 01:28:48;;;;;;;10.70;5.97;;;1.40;99.90;;;;;;2074791;28;20304;-81
2023/03/08 01:29:48;;;;;;;10.98;5.93;;;1.50;99.90;;;;;;2074423;28;20040;-81
2023/03/08 01:30:49;;;;;;;7.95;5.03;;;1.50;99.90;;;;;;2066429;28;20034;-81
2023/03/08 01:31:49;;;;;;;7.97;4.40;;;1.40;99.90;;;;;;2072325;28;20026;-83
2023/03/08 01:32:50;;;;;;;8.30;4.65;;;1.40;99.90;;;;;;2067026;28;20458;-81
2023/03/08 01:33:51;;;;;;;8.07;4.80;;;1.40;99.90;;;;;;2066834;28;20053;-81
2023/03/08 01:34:51;;;;;;;5.60;4.13;;;1.40;99.90;;;;;;2066258;28;20049;-80
2023/03/08 01:35:52;;;;;;;5.55;3.78;;;1.40;99.90;;;;;;2068926;28;20813;-80
2023/03/08 01:36:53;;;;;;;5.07;3.65;;;1.40;99.90;;;;;;2074812;28;20420;-80
2023/03/08 01:37:53;;;;;;;5.95;3.63;;;1.40;99.90;;;;;;2066743;28;20036;-80
2023/03/08 01:38:55;;;;;;;5.30;3.97;;;1.40;99.90;;;;;;2066611;28;20029;-79
2023/03/08 01:39:56;;;;;;;5.82;3.65;;;1.40;99.90;;;;;;2068560;28;20025;-79
2023/03/08 01:40:58;;;;;;;5.53;3.65;;;1.40;99.90;;;;;;2071436;28;20100;-79
2023/03/08 01:42:05;;;;;;;5.57;3.88;;;1.40;99.90;;;;;;2067192;28;20026;-79
2023/03/08 01:43:24;;;;;;;4.85;3.50;;;1.40;99.90;;;;;;2061571;28;20037;-79
2023/03/08 01:44:25;;;;;;;4.97;3.78;;;1.40;99.90;;;;;;2066098;28;20018;-82
2023/03/08 01:46:04;;;;;;;5.97;3.92;;;1.40;99.90;;;;;;2065056;28;20472;-81
2023/03/08 01:47:16;;;;;;;5.47;3.67;;;1.40;99.90;;;;;;2071962;28;20624;-81
2023/03/08 01:48:52;;;;;;;5.47;3.90;;;1.40;99.90;;;;;;2064184;28;20030;-81
2023/03/08 01:50:01;;;;;;;4.88;3.42;;;1.40;99.90;;;;;;2065458;28;20540;-81
2023/03/08 01:51:04;;;;;;;6.20;3.92;;;1.40;99.90;;;;;;2067467;28;20444;-80
2023/03/08 01:52:15;;;;;;;5.75;4.40;;;1.40;99.90;;;;;;2073808;28;20017;-80
2023/03/08 01:53:15;;;;;;;;;;;1.40;99.90;;;;;;2081153;28;20025;-81
2023/03/08 01:54:38;;;;;;;6.47;4.10;;;1.40;99.90;;;;;;2071662;28;19963;-80
2023/03/08 01:55:38;;;;;;;5.53;3.90;;;1.30;99.90;;;;;;2071654;28;20692;-82
2023/03/08 01:56:40;;;;;;;5.35;4.22;;;1.30;99.90;;;;;;2071725;28;20030;-79
2023/03/08 01:57:47;;;;;;;5.45;4.00;;;1.30;99.90;;;;;;2071880;28;20443;-80
2023/03/08 01:58:50;;;;;;;5.38;3.90;;;1.30;99.90;;;;;;2083094;28;20064;-82
2023/03/08 01:59:54;;;;;;;5.75;4.05;;;1.30;99.90;;;;;;2077006;28;20033;-79
2023/03/08 02:00:54;;;;;;;6.88;4.55;;;1.30;99.90;;;;;;2063397;28;20176;-79
2023/03/08 02:01:55;;;;;;;5.18;3.92;;;1.30;99.90;;;;;;2059009;28;20385;-80
2023/03/08 02:03:05;;;;;;;5.90;4.30;;;1.30;99.90;;;;;;2079305;28;20078;-81
2023/03/08 02:04:06;;;;;;;7.38;4.45;;;1.30;99.90;;;;;;2090718;28;20090;-80
2023/03/08 02:05:10;;;;;;;6.40;4.35;;;1.30;99.90;;;;;;2074460;28;20038;-78
2023/03/08 02:06:14;;;;;;;7.18;4.18;;;1.30;99.90;;;;;;2083579;28;20687;-79
2023/03/08 02:07:16;;;;;;;5.35;4.22;;;1.20;99.90;;;;;;2076349;28;20028;-80
2023/03/08 02:08:17;;;;;;;6.28;4.07;;;1.30;99.90;;;;;;2076375;28;20025;-80
2023/03/08 02:09:19;;;;;;;7.13;4.40;;;1.20;99.90;;;;;;2077361;28;20028;-80
2023/03/08 02:10:20;;;;;;;7.00;4.70;;;1.30;99.90;;;;;;2079254;28;20124;-80
2023/03/08 02:11:22;;;;;;;6.53;4.53;;;1.30;99.90;;;;;;2079520;28;20608;-80
2023/03/08 02:12:25;;;;;;;6.07;4.57;;;1.30;99.90;;;;;;2095736;28;20024;-80
2023/03/08 02:13:26;;;;;;;7.90;4.50;;;1.30;99.90;;;;;;2080440;28;20045;-80
2023/03/08 02:14:28;;;;;;;7.57;4.95;;;1.30;99.90;;;;;;2074834;28;20095;-80
2023/03/08 02:15:29;;;;;;;6.93;4.50;;;1.30;99.90;;;;;;2086232;28;20131;-81
2023/03/08 02:16:31;;;;;;;6.10;4.70;;;1.30;99.90;;;;;;2087549;28;20036;-80
2023/03/08 02:17:38;;;;;;;6.22;4.30;;;1.30;99.90;;;;;;2086941;28;20025;-80
2023/03/08 02:19:15;;;;;;;6.07;4.05;;;1.30;99.90;;;;;;2070549;28;20032;-81
2023/03/08 02:20:21;;;;;;;7.05;4.00;;;1.30;99.90;;;;;;2074261;28;20036;-80
2023/03/08 02:21:26;;;;;;;6.65;4.30;;;1.30;99.90;;;;;;2077137;28;20033;-81
2023/03/08 02:22:26;;;;;;;5.00;4.07;;;1.30;99.90;;;;;;2079873;28;20209;-80
2023/03/08 02:23:27;;;;;;;6.03;3.95;;;1.30;99.90;;;;;;2082441;28;20031;-80
2023/03/08 02:24:27;;;;;;;6.88;4.35;;;1.30;99.90;;;;;;2082532;28;20381;-81
2023/03/08 02:25:28;;;;;;;7.47;4.15;;;1.30;99.90;;;;;;2076120;28;20665;-81
2023/03/08 02:26:29;;;;;;;6.65;4.32;;;1.30;99.90;;;;;;2071132;28;20496;-81
2023/03/08 02:27:29;;;;;;;6.10;4.05;;;1.40;99.90;;;;;;2087174;28;20462;-82
2023/03/08 02:28:31;;;;;;;6.65;3.97;;;1.40;99.90;;;;;;2078637;28;20025;-81
2023/03/08 02:29:32;;;;;;;6.18;4.30;;;1.40;99.90;;;;;;2071198;28;20336;-80
2023/03/08 02:30:35;;;;;;;6.55;3.92;;;1.40;99.90;;;;;;2079322;28;20068;-81
2023/03/08 02:31:36;;;;;;;6.65;4.20;;;1.40;99.90;;;;;;2079733;28;20547;-80
2023/03/08 02:32:38;;;;;;;4.70;3.85;;;1.40;99.90;;;;;;2093073;28;20120;-81
2023/03/08 02:33:39;;;;;;;6.25;4.07;;;1.40;99.90;;;;;;2094385;28;20292;-81
2023/03/08 02:34:39;;;;;;;6.45;4.30;;;1.40;99.90;;;;;;2085986;28;20052;-81
2023/03/08 02:35:41;;;;;;;5.90;4.28;;;1.40;99.90;;;;;;2088182;28;20052;-80
2023/03/08 02:36:42;;;;;;;6.22;4.57;;;1.50;99.90;;;;;;2084384;28;20403;-80
2023/03/08 02:37:42;;;;;;;7.47;4.25;;;1.50;99.90;;;;;;2078649;28;20179;-80
2023/03/08 02:38:43;;;;;;;7.22;4.18;;;1.50;99.90;;;;;;2086870;28;20056;-81
2023/03/08 02:39:43;;;;;;;6.30;4.10;;;1.50;99.90;;;;;;2087467;28;20115;-81
2023/03/08 02:40:44;;;;;;;6.10;4.20;;;1.50;99.90;;;;;;2089140;28;20082;-81
2023/03/08 02:41:45;;;;;;;5.30;4.25;;;1.50;99.90;;;;;;2086248;28;20063;-80
2023/03/08 02:42:47;;;;;;;5.68;4.07;;;1.50;99.90;;;;;;2082939;28;20427;-81
2023/03/08 02:43:47;;;;;;;6.70;4.40;;;1.50;99.90;;;;;;2078841;28;20032;-81
2023/03/08 02:44:48;;;;;;;6.40;4.10;;;1.50;99.90;;;;;;2084799;28;20033;-81
2023/03/08 02:45:50;;;;;;;5.70;4.53;;;1.50;99.90;;;;;;2087759;28;20017;-80
2023/03/08 02:46:51;;;;;;;5.55;4.22;;;1.50;99.90;;;;;;2087363;28;20060;-80
2023/03/08 02:47:52;;;;;;;7.70;4.68;;;1.50;99.90;;;;;;2088900;28;20024;-81
2023/03/08 02:48:52;;;;;;;6.43;4.88;;;1.50;99.90;;;;;;2090631;28;20054;-80
2023/03/08 02:49:54;;;;;;;6.20;4.57;;;1.50;99.90;;;;;;2088453;28;20127;-80
2023/03/08 02:50:55;;;;;;;8.82;5.55;;;1.50;99.90;;;;;;2082440;28;20255;-80
2023/03/08 02:51:55;;;;;;;8.13;6.15;;;1.50;99.90;;;;;;2085913;28;20390;-80
2023/03/08 02:52:57;;;;;;;9.13;6.57;;;1.60;99.90;;;;;;2086681;28;20020;-80
2023/03/08 02:53:59;;;;;;;9.15;6.55;;;1.60;99.90;;;;;;2085390;28;20017;-80
2023/03/08 02:54:59;;;;;;;11.00;7.40;;;1.60;99.90;;;;;;2078821;28;20026;-79
2023/03/08 02:56:00;;;;;;;8.75;6.43;;;1.60;99.90;;;;;;2068296;28;20423;-79
2023/03/08 02:57:01;;;;;;;10.55;7.50;;;1.60;99.90;;;;;;2086310;28;20029;-79
2023/03/08 02:58:04;;;;;;;10.88;7.28;;;1.60;99.90;;;;;;2078904;28;20027;-81
2023/03/08 02:59:05;;;;;;;10.63;7.22;;;1.60;99.90;;;;;;2079468;28;20361;-80
2023/03/08 03:00:06;;;;;;;10.00;6.97;;;1.60;99.90;;;;;;2080113;28;20059;-81
2023/03/08 03:01:13;;;;;;;11.88;7.55;;;1.60;99.90;;;;;;2074237;28;20435;-80
2023/03/08 03:02:14;;;;;;;9.50;6.82;;;1.60;99.90;;;;;;2075013;28;20025;-80
2023/03/08 03:03:15;;;;;;;8.98;6.38;;;1.60;99.90;;;;;;2082137;28;20040;-79
2023/03/08 03:04:16;;;;;;;9.25;6.18;;;1.60;99.90;;;;;;2074527;28;20037;-79
2023/03/08 03:05:17;;;;;;;10.90;6.20;;;1.70;99.90;;;;;;2084329;28;20522;-80
2023/03/08 03:06:19;;;;;;;8.90;6.18;;;1.60;99.90;;;;;;2079752;28;20051;-80
2023/03/08 03:07:24;;;;;;;7.28;5.60;;;1.60;99.90;;;;;;2080146;28;20491;-78
2023/03/08 03:08:25;;;;;;;7.05;5.07;;;1.60;99.90;;;;;;2088225;28;20032;-80
2023/03/08 03:09:28;;;;;;;6.85;5.10;;;1.60;99.90;;;;;;2079099;28;20009;-78
2023/03/08 03:10:30;;;;;;;7.47;5.30;;;1.70;99.90;;;;;;2080081;28;20511;-80
2023/03/08 03:11:31;;;;;;;7.47;5.03;;;1.70;99.90;;;;;;2073901;28;20022;-79
2023/03/08 03:12:32;;;;;;;7.50;5.30;;;1.70;99.90;;;;;;2070109;28;20033;-80
2023/03/08 03:13:32;;;;;;;7.35;4.90;;;1.70;99.90;;;;;;2081061;28;20283;-79
2023/03/08 03:14:33;;;;;;;5.53;4.43;;;1.70;99.90;;;;;;2087791;28;20027;-79
2023/03/08 03:15:38;;;;;;;7.72;4.95;;;1.70;99.90;;;;;;2079172;28;20033;-78
2023/03/08 03:16:38;;;;;;;7.43;4.70;;;1.70;99.90;;;;;;2073889;28;20040;-79
2023/03/08 03:17:39;;;;;;;7.32;4.60;;;1.70;99.90;;;;;;2072578;28;20026;-80
2023/03/08 03:18:40;;;;;;;7.30;4.53;;;1.70;99.90;;;;;;2088936;28;20495;-80
2023/03/08 03:19:41;;;;;;;6.10;4.55;;;1.70;99.90;;;;;;2080781;28;20536;-79
2023/03/08 03:20:41;;;;;;;6.78;4.40;;;1.70;99.90;;;;;;2089803;28;20510;-80
2023/03/08 03:21:43;;;;;;;6.70;4.45;;;1.70;99.90;;;;;;2082051;28;20134;-81
2023/03/08 03:22:45;;;;;;;7.07;4.85;;;1.60;99.90;;;;;;2076912;28;20524;-81
2023/03/08 03:23:46;;;;;;;7.05;4.40;;;1.60;99.90;;;;;;2082783;28;20118;-81
2023/03/08 03:24:51;;;;;;;5.95;4.57;;;1.60;99.90;;;;;;2082769;28;20082;-80
2023/03/08 03:25:52;;;;;;;7.13;5.00;;;1.60;99.90;;;;;;2088607;28;20039;-80
2023/03/08 03:26:54;;;;;;;8.20;5.47;;;1.60;99.90;;;;;;2079241;28;20557;-82
2023/03/08 03:27:57;;;;;;;7.78;5.38;;;1.60;99.90;;;;;;2065168;28;20072;-80
2023/03/08 03:29:01;;;;;;;7.95;5.38;;;1.60;99.90;;;;;;2074486;28;20107;-81
2023/03/08 03:30:07;;;;;;;8.38;6.03;;;1.60;99.90;;;;;;2079945;28;20128;-81
2023/03/08 03:31:12;;;;;;;9.93;6.72;;;1.60;99.90;;;;;;2086499;28;20104;-81
2023/03/08 03:32:13;;;;;;;12.30;7.93;;;1.60;99.90;;;;;;2086759;28;20078;-81
2023/03/08 03:33:14;;;;;;;19.00;9.88;;;1.60;99.90;;;;;;2075615;28;20467;-81
2023/03/08 03:34:14;;;;;;;23.73;12.38;;;1.60;99.90;;;;;;2069185;28;20071;-79
2023/03/08 03:35:17;;;;;;;27.05;13.98;;;1.60;99.90;;;;;;2073014;28;20044;-82
2023/03/08 03:36:20;;;;;;;37.75;17.40;;;1.60;99.90;;;;;;2069147;28;20026;-80
2023/03/08 03:37:21;;;;;;;37.42;18.05;;;1.60;99.90;;;;;;2063572;28;20030;-80
2023/03/08 03:38:21;;;;;;;37.47;16.77;;;1.60;99.90;;;;;;2078671;28;20029;-80
2023/03/08 03:39:22;;;;;;;27.35;13.88;;;1.60;99.90;;;;;;2088571;28;20118;-80
2023/03/08 03:40:23;;;;;;;27.02;13.63;;;1.50;99.90;;;;;;2090218;28;20055;-80
2023/03/08 03:41:28;;;;;;;24.13;12.13;;;1.50;99.90;;;;;;2088833;28;20067;-81
2023/03/08 03:42:36;;;;;;;20.67;10.85;;;1.50;99.90;;;;;;2079682;28;20049;-82
2023/03/08 03:43:44;;;;;;;21.88;11.15;;;1.60;99.90;;;;;;2079684;28;20028;-82
2023/03/08 03:44:45;;;;;;;21.08;10.55;;;1.50;99.90;;;;;;2078588;28;20090;-81
2023/03/08 03:45:57;;;;;;;21.23;9.77;;;1.60;99.90;;;;;;2076935;28;20131;-82
2023/03/08 03:46:58;;;;;;;28.55;11.65;;;1.60;99.90;;;;;;2085209;28;20077;-82
2023/03/08 03:48:01;;;;;;;31.38;12.20;;;1.60;99.90;;;;;;2082156;28;20024;-81
2023/03/08 03:49:02;;;;;;;29.20;12.00;;;1.60;99.90;;;;;;2073982;28;20064;-81
2023/03/08 03:50:09;;;;;;;26.17;10.80;;;1.50;99.90;;;;;;2062696;28;20034;-82
2023/03/08 03:51:22;;;;;;;28.30;11.38;;;1.60;99.90;;;;;;2077346;28;20021;-82
2023/03/08 03:52:28;;;;;;;32.35;12.52;;;1.60;99.90;;;;;;2078258;28;20132;-82
2023/03/08 03:53:36;;;;;;;37.03;13.50;;;1.60;99.90;;;;;;2079554;28;20058;-81
2023/03/08 03:54:37;;;;;;;43.83;15.75;;;1.60;99.90;;;;;;2079476;28;20503;-81
2023/03/08 03:55:37;;;;;;;54.47;20.02;;;1.60;99.90;;;;;;2075708;28;20064;-81
2023/03/08 03:56:38;;;;;;;62.15;20.50;;;1.60;99.90;;;;;;2081985;28;20039;-80
2023/03/08 03:57:41;;;;;;;55.95;19.08;;;1.60;99.90;;;;;;2074045;28;20112;-80
2023/03/08 03:58:46;;;;;;;50.17;18.45;;;1.60;99.90;;;;;;2078565;28;20507;-80
2023/03/08 03:59:50;;;;;;;48.65;17.65;;;1.70;99.90;;;;;;2081003;28;20116;-80
2023/03/08 04:00:51;;;;;;;46.72;16.90;;;1.60;99.90;;;;;;2080501;28;20029;-81
2023/03/08 04:02:01;;;;;;;42.92;15.27;;;1.70;99.90;;;;;;2087059;28;20169;-81
2023/03/08 04:03:13;;;;;;;38.42;14.63;;;1.70;99.90;;;;;;2079923;28;20071;-81
2023/03/08 04:04:13;;;;;;;37.63;14.82;;;1.70;99.90;;;;;;2086851;28;20499;-81
2023/03/08 04:05:17;;;;;;;31.00;13.07;;;1.70;99.90;;;;;;2088351;28;20028;-82
2023/03/08 04:06:24;;;;;;;29.13;12.15;;;1.70;99.90;;;;;;2092230;28;20037;-81
2023/03/08 04:07:25;;;;;;;26.40;11.95;;;1.70;99.90;;;;;;2090213;28;20542;-79
2023/03/08 04:08:40;;;;;;;20.50;10.13;;;1.70;99.90;;;;;;2080318;28;20364;-81
2023/03/08 04:09:43;;;;;;;23.23;10.93;;;1.70;99.90;;;;;;2072411;28;20479;-81
2023/03/08 04:10:49;;;;;;;26.88;12.95;;;1.60;99.90;;;;;;2068131;28;20422;-81
2023/03/08 04:11:49;;;;;;;31.65;14.77;;;1.60;99.90;;;;;;2077675;28;20547;-82
2023/03/08 04:12:53;;;;;;;24.52;12.05;;;1.60;99.90;;;;;;2081109;28;20554;-82
2023/03/08 04:13:56;;;;;;;22.80;11.00;;;1.60;99.90;;;;;;2083347;28;20140;-82
2023/03/08 04:14:59;;;;;;;19.40;9.45;;;1.60;99.90;;;;;;2078691;28;20035;-83
2023/03/08 04:16:20;;;;;;;16.55;8.80;;;1.60;99.90;;;;;;2080733;28;20037;-83
2023/03/08 04:17:21;;;;;;;12.48;7.43;;;1.60;99.90;;;;;;2079781;28;20029;-75
2023/03/08 04:18:25;;;;;;;11.50;6.97;;;1.60;99.90;;;;;;2077229;28;20460;-75
2023/03/08 04:19:26;;;;;;;10.80;6.70;;;1.60;99.90;;;;;;2079691;28;20518;-75
2023/03/08 04:20:29;;;;;;;10.60;6.38;;;1.60;99.90;;;;;;2075864;28;20112;-74
2023/03/08 04:21:33;;;;;;;10.30;6.43;;;1.60;99.90;;;;;;2083608;28;20021;-74
2023/03/08 04:22:34;;;;;;;8.82;6.05;;;1.60;99.90;;;;;;2086608;28;20108;-74
2023/03/08 04:23:56;;;;;;;;;;;1.60;99.90;;;;;;2083842;28;20558;-74
2023/03/08 04:24:56;;;;;;;10.40;6.20;;;1.60;99.90;;;;;;2081870;28;19913;-74
2023/03/08 04:26:09;;;;;;;8.48;5.70;;;1.60;99.90;;;;;;2070301;28;20034;-74
2023/03/08 04:27:09;;;;;;;8.40;5.72;;;1.60;99.90;;;;;;2075138;28;20482;-75
2023/03/08 04:28:10;;;;;;;8.57;6.40;;;1.60;99.90;;;;;;2070691;28;21498;-74
2023/03/08 04:29:12;;;;;;;10.35;6.88;;;1.60;99.90;;;;;;2079799;28;20052;-74
2023/03/08 04:30:13;;;;;;;9.70;6.68;;;1.60;99.90;;;;;;2081396;28;20029;-74
2023/03/08 04:31:17;;;;;;;10.23;6.72;;;1.60;99.90;;;;;;2087647;28;20027;-77
2023/03/08 04:32:18;;;;;;;10.60;7.53;;;1.60;99.90;;;;;;2075906;28;20095;-75
2023/03/08 04:33:23;;;;;;;10.75;7.10;;;1.60;99.90;;;;;;2074743;28;20318;-75
2023/03/08 04:34:25;;;;;;;13.05;8.23;;;1.70;99.90;;;;;;2075254;28;20080;-75
2023/03/08 04:35:26;;;;;;;15.73;11.90;;;1.70;99.90;;;;;;2077095;28;20077;-75
2023/03/08 04:36:28;;;;;;;18.55;13.25;;;1.70;99.90;;;;;;2083502;28;20032;-75
2023/03/08 04:37:32;;;;;;;17.45;12.05;;;1.60;99.90;;;;;;2078395;28;20033;-75
2023/03/08 04:38:41;;;;;;;15.55;11.52;;;1.60;99.90;;;;;;2076039;28;20328;-75
2023/03/08 04:39:41;;;;;;;16.77;11.25;;;1.70;99.90;;;;;;2082317;28;20483;-75
2023/03/08 04:41:10;;;;;;;15.10;10.88;;;1.60;99.90;;;;;;2079316;28;20120;-75
2023/03/08 04:42:19;;;;;;;14.77;9.93;;;1.60;99.90;;;;;;2081794;28;20071;-74
2023/03/08 04:43:20;;;;;;;15.52;10.27;;;1.60;99.90;;;;;;2081354;28;20017;-73
2023/03/08 04:44:21;;;;;;;16.92;10.38;;;1.60;99.90;;;;;;2073274;28;20475;-74
2023/03/08 04:45:24;;;;;;;16.48;9.75;;;1.60;99.90;;;;;;2084457;28;20087;-73
2023/03/08 04:46:28;;;;;;;15.82;9.60;;;1.70;99.90;;;;;;2069107;28;20084;-74
2023/03/08 04:47:28;;;;;;;14.25;9.65;;;1.70;99.90;;;;;;2071980;28;20404;-74
2023/03/08 04:48:29;;;;;;;14.77;9.43;;;1.70;99.90;;;;;;2072726;28;20094;-74
2023/03/08 04:49:30;;;;;;;15.45;9.70;;;1.70;99.90;;;;;;2085345;28;20679;-74
2023/03/08 04:50:34;;;;;;;16.88;9.95;;;1.70;99.90;;;;;;2081252;28;20400;-74
2023/03/08 04:51:36;;;;;;;16.33;9.85;;;1.70;99.90;;;;;;2074962;28;20625;-74
2023/03/08 04:52:40;;;;;;;17.02;10.45;;;1.70;99.90;;;;;;2075586;28;20025;-78
2023/03/08 04:53:43;;;;;;;15.15;9.68;;;1.70;99.90;;;;;;2085940;28;20642;-74
2023/03/08 04:54:43;;;;;;;16.85;10.13;;;1.70;99.90;;;;;;2087701;28;20036;-75
2023/03/08 04:55:52;;;;;;;16.92;9.98;;;1.70;99.90;;;;;;2091907;28;20448;-74
2023/03/08 04:56:52;;;;;;;17.48;10.43;;;1.70;99.90;;;;;;2085538;28;20033;-73
2023/03/08 04:57:57;;;;;;;17.20;9.93;;;1.70;99.90;;;;;;2085106;28;20522;-73
2023/03/08 04:58:59;;;;;;;18.65;10.85;;;1.70;99.90;;;;;;2079801;28;20025;-72
2023/03/08 05:00:01;;;;;;;19.58;11.55;;;1.70;99.90;;;;;;2081038;28;20073;-73
2023/03/08 05:01:13;;;;;;;20.00;11.60;;;1.70;99.90;;;;;;2089652;28;20762;-72
2023/03/08 05:02:15;;;;;;;22.00;11.82;;;1.70;99.90;;;;;;2089009;28;20041;-73
2023/03/08 05:03:17;;;;;;;22.58;13.00;;;1.70;99.90;;;;;;2071570;28;20136;-73
2023/03/08 05:04:17;;;;;;;21.13;12.75;;;1.70;99.90;;;;;;2079993;28;20033;-73
2023/03/08 05:05:18;;;;;;;21.38;12.68;;;1.70;99.90;;;;;;2081073;28;20052;-72
2023/03/08 05:06:21;;;;;;;22.05;12.52;;;1.70;99.90;;;;;;2083253;28;20033;-72
2023/03/08 05:07:22;;;;;;;19.55;12.07;;;1.70;99.90;;;;;;2090043;28;20081;-74
2023/03/08 05:08:24;;;;;;;21.35;11.85;;;1.70;99.90;;;;;;2082964;28;20029;-72
2023/03/08 05:09:25;;;;;;;19.85;12.00;;;1.70;99.90;;;;;;2091372;28;20032;-73
2023/03/08 05:10:27;;;;;;;21.00;12.60;;;1.70;99.90;;;;;;2085134;28;20119;-72
2023/03/08 05:11:29;;;;;;;20.65;12.57;;;1.70;99.90;;;;;;2082352;28;20063;-72
2023/03/08 05:12:30;;;;;;;21.73;12.52;;;1.70;99.90;;;;;;2079236;28;20508;-73
2023/03/08 05:13:36;;;;;;;20.75;12.10;;;1.80;99.90;;;;;;2079733;28;20850;-74
2023/03/08 05:14:37;;;;;;;18.73;11.60;;;1.80;99.90;;;;;;2089345;28;20408;-72
2023/03/08 05:15:38;;;;;;;18.55;11.55;;;1.80;99.90;;;;;;2084203;28;20156;-73
2023/03/08 05:16:38;;;;;;;18.90;11.77;;;1.80;99.90;;;;;;2093254;28;20029;-73
2023/03/08 05:17:39;;;;;;;18.10;10.98;;;1.80;99.90;;;;;;2082843;28;20025;-73
2023/03/08 05:18:40;;;;;;;16.52;11.02;;;1.80;99.90;;;;;;2074960;28;20053;-73
2023/03/08 05:19:42;;;;;;;18.35;10.98;;;1.80;99.90;;;;;;2067018;28;20141;-74
2023/03/08 05:20:44;;;;;;;19.02;11.10;;;1.80;99.90;;;;;;2073112;28;20030;-74
2023/03/08 05:21:45;;;;;;;21.40;11.50;;;1.80;99.90;;;;;;2076860;28;20124;-74
2023/03/08 05:22:46;;;;;;;18.15;11.52;;;1.80;99.90;;;;;;2082712;28;20157;-73
2023/03/08 05:23:47;;;;;;;17.25;10.07;;;1.80;99.90;;;;;;2088838;28;20040;-73
2023/03/08 05:24:51;;;;;;;16.55;10.43;;;1.80;99.90;;;;;;2079504;28;20052;-73
2023/03/08 05:25:57;;;;;;;18.38;10.43;;;1.70;99.90;;;;;;2072063;28;20017;-75
2023/03/08 05:26:58;;;;;;;18.02;10.40;;;1.70;99.90;;;;;;2075522;28;20030;-75
2023/03/08 05:27:59;;;;;;;17.40;10.32;;;1.70;99.90;;;;;;2072111;28;20037;-75
2023/03/08 05:29:02;;;;;;;18.50;10.80;;;1.70;99.90;;;;;;2075139;28;20488;-74